Grelton, Ohio
Current Conditions -  °F | °C
As of 8:35 PM on Friday 21 Nov 2014 (Local Time) from KUSE Reporting Station
Clear Clear  
Wind Chill:   Ceiling: Unl
Heat Index: 18°   Visibility: 10mi
Dew Point: 10°   Wind: 8mph
Humidity: 73%   Direction: 180°S
Pressure: 30.39"   Gusts: NA
Location:  41.34°N, 84°W
Report Text: KUSE 220135Z AUTO 18007KT 10SM CLR M08/M12 A3039 RMK AO2
Loading
Personal Weather Stations






























Interactive Weather Map New forecast layout! Learn more

10-Day Weather Forecast

Advertisements
Track Severe Weather on mobile